Hendersonville, North Carolina
Current Conditions -  °F | °C
As of 6:54 AM on Friday 28 Nov 2014 (Local Time) from KAVL Reporting Station
Clear Clear  
Wind Chill: 16°   Ceiling: Unl
Heat Index: 24°   Visibility: 10mi
Dew Point: 14°   Wind: 7mph
Humidity: 65%   Direction: 330°NNW
Pressure: 30.31"   Gusts: NA
Location:  35.32°N, 82.46°W
Report Text: KAVL 281154Z 33006KT 10SM CLR M04/M10 A3031 RMK AO2 SLP280 T10441100 11022 21044 53010
Loading
Personal Weather Stations






























Interactive Weather Map New forecast layout! Learn more

10-Day Weather Forecast

Advertisements
Track Severe Weather on mobile